Terminal Aerodrome Forecast
Issued by NWS

Home | Current Version | Previous Version | Text Only | Print | Product List | Glossary On
Versions: 1 2 3 4 5 6 7 8 9 10 11 12 13 14 15 16 17 18 19
216
FTUS42 KKEY 180842 AAA
TAFMTH
TAF AMD
KMTH 180842Z 1809/1906 06007KT P6SM VCSH SCT025 BKN050
     FM182200 08006KT P6SM SCT020 BKN060=

USA.gov is the U.S. government's official web portal to all federal, state and local government web resources and services.